X  CloseMetar Aviation Weather Data     YMAV Avalon Airport

Temperature

4°C Temperature

4°C Dewpoint

100% Humidity



Wind

 0 KM/H

 0 MPH

 0 M/S

 0 KTS



Calm
Due North
Current Conditions

Mist Mist
Pressure 1027.92 (hPa) - 30.35 (in)
Visibility 2.4 (mi) - 3.8 (km)
Airport
Airport-code YMAV

Location Avalon Airport 14 (km)

Metar:
YMAV 231500Z AUTO 00000KT 3800 BR NCD 04/04 Q1028 RF00.0/000.0

Time: 24-05-2022 01:00